Time;durP1;ratioP1;P1;durP2;ratioP2;P2;SDS_P1;SDS_P2;PMS_P1;PMS_P2;Temp;Humidity;BMP_temperature;BMP_pressure;BME280_temperature;BME280_humidity;BME280_pressure;Samples;Min_cycle;Max_cycle;Signal;HPM_P1;HPM_P2
2022/07/24 00:01:28;;;;;;;1.17;1.17;;;17.50;99.90;;;;;;6335949;28;20274;-67
2022/07/24 00:04:34;;;;;;;1.27;1.10;;;17.50;99.90;;;;;;6331574;28;20262;-67
2022/07/24 00:07:43;;;;;;;1.27;1.10;;;17.60;99.90;;;;;;6311094;28;20279;-67
2022/07/24 00:10:48;;;;;;;0.95;0.95;;;17.50;99.90;;;;;;6311200;28;20282;-69
2022/07/24 00:13:54;;;;;;;1.00;1.00;;;17.50;99.90;;;;;;6310670;28;20266;-68
2022/07/24 00:16:59;;;;;;;1.17;0.90;;;17.50;99.90;;;;;;6310947;28;20459;-68
2022/07/24 00:20:07;;;;;;;1.05;1.05;;;17.60;99.90;;;;;;6310945;28;20270;-68
2022/07/24 00:23:16;;;;;;;3.10;1.23;;;17.60;99.90;;;;;;6311041;28;20267;-68
2022/07/24 00:26:22;;;;;;;1.00;1.00;;;17.60;99.90;;;;;;6310473;28;20274;-68
2022/07/24 00:29:27;;;;;;;1.13;0.90;;;17.50;99.90;;;;;;6310463;28;20274;-68
2022/07/24 00:32:33;;;;;;;1.95;1.00;;;17.50;99.90;;;;;;6311072;28;20270;-68
2022/07/24 00:35:38;;;;;;;1.27;1.08;;;17.50;99.90;;;;;;6310883;28;20271;-68
2022/07/24 00:38:45;;;;;;;1.00;1.00;;;17.50;99.90;;;;;;6323614;28;20301;-68
2022/07/24 00:41:52;;;;;;;0.95;0.95;;;17.40;99.90;;;;;;6335185;28;20270;-68
2022/07/24 00:44:59;;;;;;;2.63;1.00;;;17.40;99.90;;;;;;6336083;28;20270;-68
2022/07/24 00:48:05;;;;;;;0.90;0.90;;;17.50;99.90;;;;;;6335698;28;20497;-68
2022/07/24 00:51:14;;;;;;;0.90;0.90;;;17.40;99.90;;;;;;6335460;28;20269;-68
2022/07/24 00:54:22;;;;;;;1.10;1.10;;;17.50;99.90;;;;;;6335287;28;20282;-68
2022/07/24 00:57:28;;;;;;;0.90;0.90;;;17.50;99.90;;;;;;6335503;28;20274;-67
2022/07/24 01:00:33;;;;;;;0.95;0.95;;;17.50;99.90;;;;;;6335248;28;20565;-67
2022/07/24 01:03:38;;;;;;;0.90;0.90;;;17.40;99.90;;;;;;6335577;28;20270;-67
2022/07/24 01:06:44;;;;;;;0.95;0.95;;;17.40;99.90;;;;;;6335301;28;20265;-68
2022/07/24 01:09:51;;;;;;;1.40;1.30;;;17.40;99.90;;;;;;6335616;28;20273;-67
2022/07/24 01:12:57;;;;;;;1.02;1.02;;;17.30;99.90;;;;;;6334914;28;20265;-67
2022/07/24 01:16:02;;;;;;;1.02;1.00;;;17.40;99.90;;;;;;6335130;28;20546;-67
2022/07/24 01:19:07;;;;;;;1.10;1.10;;;17.40;99.90;;;;;;6334831;28;20289;-67
2022/07/24 01:22:14;;;;;;;1.40;1.40;;;17.30;99.90;;;;;;6335115;28;20270;-67
2022/07/24 01:25:19;;;;;;;1.20;1.20;;;17.40;99.90;;;;;;6335520;28;20269;-67
2022/07/24 01:28:25;;;;;;;1.33;1.23;;;17.40;99.90;;;;;;6335412;28;20269;-67
2022/07/24 01:31:30;;;;;;;1.63;1.20;;;17.40;99.90;;;;;;6335348;28;20278;-67
2022/07/24 01:34:36;;;;;;;1.17;1.02;;;17.40;99.90;;;;;;6334671;28;20266;-67
2022/07/24 01:37:42;;;;;;;1.35;1.13;;;17.40;99.90;;;;;;6334959;28;20293;-67
2022/07/24 01:40:48;;;;;;;1.00;1.00;;;17.50;99.90;;;;;;6337993;28;20286;-67
2022/07/24 01:43:53;;;;;;;2.45;1.20;;;17.40;99.90;;;;;;6339530;28;20274;-67
2022/07/24 01:46:59;;;;;;;0.90;0.90;;;17.40;99.90;;;;;;6339460;28;20269;-67
2022/07/24 01:50:05;;;;;;;1.10;1.10;;;17.40;99.90;;;;;;6339535;28;20270;-67
2022/07/24 01:53:15;;;;;;;0.98;0.90;;;17.40;99.90;;;;;;6339175;28;20274;-67
2022/07/24 01:56:20;;;;;;;2.58;1.10;;;17.40;99.90;;;;;;6338683;28;20269;-67
2022/07/24 01:59:26;;;;;;;1.13;1.13;;;17.40;99.90;;;;;;6339562;28;20550;-67
2022/07/24 02:02:32;;;;;;;1.00;1.00;;;17.40;99.90;;;;;;6338707;28;20265;-67
2022/07/24 02:05:37;;;;;;;1.15;1.10;;;17.30;99.90;;;;;;6330824;28;20266;-67
2022/07/24 02:08:44;;;;;;;1.10;1.10;;;17.40;99.90;;;;;;6338595;28;20305;-67
2022/07/24 02:11:49;;;;;;;1.20;1.20;;;17.40;99.90;;;;;;6339127;28;20270;-68
2022/07/24 02:14:55;;;;;;;1.33;1.27;;;17.30;99.90;;;;;;6338913;28;20278;-67
2022/07/24 02:18:01;;;;;;;1.00;1.00;;;17.40;99.90;;;;;;6338438;28;20457;-67
2022/07/24 02:21:07;;;;;;;1.10;1.10;;;17.40;99.90;;;;;;6338414;28;20289;-67
2022/07/24 02:24:14;;;;;;;1.10;1.10;;;17.40;99.90;;;;;;6338337;28;20269;-67
2022/07/24 02:27:20;;;;;;;1.10;1.10;;;17.40;99.90;;;;;;6338557;28;20269;-67
2022/07/24 02:30:25;;;;;;;1.02;1.02;;;17.40;99.90;;;;;;6338112;28;20274;-67
2022/07/24 02:33:30;;;;;;;1.00;1.00;;;17.40;99.90;;;;;;6338064;28;20462;-67
2022/07/24 02:36:36;;;;;;;1.45;1.02;;;17.40;99.90;;;;;;6337692;28;20269;-67
2022/07/24 02:39:42;;;;;;;1.08;1.08;;;17.40;99.90;;;;;;6337565;28;20584;-67
2022/07/24 02:42:48;;;;;;;1.15;1.15;;;17.40;99.90;;;;;;6338002;28;20269;-67
2022/07/24 02:45:53;;;;;;;1.20;1.20;;;17.50;99.90;;;;;;6338261;28;20270;-67
2022/07/24 02:48:59;;;;;;;0.90;0.90;;;17.40;99.90;;;;;;6337964;28;20273;-67
2022/07/24 02:52:05;;;;;;;1.25;0.98;;;17.50;99.90;;;;;;6336750;28;20270;-66
2022/07/24 02:55:12;;;;;;;1.20;1.20;;;17.50;99.90;;;;;;6337280;28;20549;-66
2022/07/24 02:58:18;;;;;;;1.10;1.10;;;17.50;99.90;;;;;;6337803;28;20274;-67
2022/07/24 03:01:26;;;;;;;1.48;1.10;;;17.50;99.90;;;;;;6337714;28;20274;-67
2022/07/24 03:04:31;;;;;;;1.17;1.17;;;17.50;99.90;;;;;;6333603;28;20262;-66
2022/07/24 03:07:36;;;;;;;2.25;0.93;;;17.60;99.90;;;;;;6329378;28;20276;-67
2022/07/24 03:10:43;;;;;;;1.00;1.00;;;17.60;99.90;;;;;;6337709;28;20549;-67
2022/07/24 03:13:48;;;;;;;2.30;1.10;;;17.60;99.90;;;;;;6337575;28;20444;-67
2022/07/24 03:16:53;;;;;;;1.40;1.40;;;17.60;99.90;;;;;;6337575;28;20269;-67
2022/07/24 03:19:59;;;;;;;1.38;1.35;;;17.50;99.90;;;;;;6337373;28;20600;-67
2022/07/24 03:23:05;;;;;;;1.15;1.15;;;17.60;99.90;;;;;;6337027;28;20556;-67
2022/07/24 03:26:13;;;;;;;1.33;1.33;;;17.60;99.90;;;;;;6336988;28;20274;-67
2022/07/24 03:29:19;;;;;;;1.30;1.30;;;17.60;99.90;;;;;;6319092;28;20446;-67
2022/07/24 03:32:24;;;;;;;1.33;1.33;;;17.60;99.90;;;;;;6337275;28;20278;-67
2022/07/24 03:35:29;;;;;;;1.20;1.20;;;17.60;99.90;;;;;;6337193;28;20265;-67
2022/07/24 03:38:35;;;;;;;1.40;1.40;;;17.70;99.90;;;;;;6336485;28;20477;-67
2022/07/24 03:41:41;;;;;;;1.40;1.40;;;17.70;99.90;;;;;;6336318;28;20289;-67
2022/07/24 03:44:46;;;;;;;2.05;1.50;;;17.70;99.90;;;;;;6336888;28;20270;-67
2022/07/24 03:47:52;;;;;;;1.60;1.60;;;17.70;99.90;;;;;;6336662;28;20570;-67
2022/07/24 03:50:58;;;;;;;1.35;1.35;;;17.70;99.90;;;;;;6336573;28;20278;-67
2022/07/24 03:54:04;;;;;;;1.83;1.73;;;17.70;99.90;;;;;;6336725;28;20270;-67
2022/07/24 03:57:12;;;;;;;1.42;1.42;;;17.70;99.90;;;;;;6335949;28;20273;-68
2022/07/24 04:00:18;;;;;;;1.60;1.60;;;17.70;99.90;;;;;;6336366;28;20285;-67
2022/07/24 04:03:23;;;;;;;1.55;1.33;;;17.70;99.90;;;;;;6335582;28;20261;-67
2022/07/24 04:06:28;;;;;;;2.00;1.70;;;17.80;99.90;;;;;;6336051;28;20266;-67
2022/07/24 04:09:34;;;;;;;1.55;1.45;;;17.80;99.90;;;;;;6335723;28;20294;-67
2022/07/24 04:12:40;;;;;;;1.90;1.90;;;17.80;99.90;;;;;;6336008;28;20274;-67
2022/07/24 04:15:45;;;;;;;1.55;1.55;;;17.80;99.90;;;;;;6336293;28;20269;-67
2022/07/24 04:18:51;;;;;;;2.25;1.50;;;17.90;99.90;;;;;;6335510;28;20269;-67
2022/07/24 04:21:56;;;;;;;1.60;1.60;;;17.80;99.90;;;;;;6336080;28;20289;-67
2022/07/24 04:25:02;;;;;;;1.55;1.55;;;17.80;99.90;;;;;;6335751;28;20265;-67
2022/07/24 04:28:09;;;;;;;1.77;1.70;;;17.90;99.90;;;;;;6335762;28;20441;-67
2022/07/24 04:31:14;;;;;;;1.60;1.60;;;18.00;99.90;;;;;;6335843;28;20277;-67
2022/07/24 04:34:19;;;;;;;1.63;1.63;;;18.10;99.90;;;;;;6336099;28;20333;-67
2022/07/24 04:37:25;;;;;;;1.50;1.50;;;18.10;99.90;;;;;;6335945;28;20274;-67
2022/07/24 04:40:30;;;;;;;1.65;1.60;;;18.10;99.90;;;;;;6335705;28;20270;-67
2022/07/24 04:43:37;;;;;;;1.48;1.48;;;18.10;99.90;;;;;;6335495;28;20269;-67
2022/07/24 04:46:42;;;;;;;1.50;1.50;;;18.10;99.90;;;;;;6335459;28;20572;-67
2022/07/24 04:49:48;;;;;;;1.60;1.50;;;18.10;99.90;;;;;;6335507;28;20275;-67
2022/07/24 04:52:53;;;;;;;1.75;1.50;;;18.00;99.90;;;;;;6335136;28;20441;-67
2022/07/24 04:55:59;;;;;;;1.40;1.40;;;18.00;99.90;;;;;;6335007;28;20305;-67
2022/07/24 04:59:05;;;;;;;2.38;1.50;;;17.90;99.90;;;;;;6335247;28;20266;-67
2022/07/24 05:02:12;;;;;;;1.50;1.50;;;18.00;99.90;;;;;;6335174;28;20600;-67
2022/07/24 05:05:18;;;;;;;1.50;1.40;;;18.00;99.90;;;;;;6325513;28;20457;-67
2022/07/24 05:08:23;;;;;;;3.42;1.42;;;18.10;99.90;;;;;;6310763;28;20270;-67
2022/07/24 05:11:28;;;;;;;1.50;1.42;;;18.20;99.90;;;;;;6310660;28;20278;-67
2022/07/24 05:14:35;;;;;;;1.40;1.40;;;18.20;99.90;;;;;;6311378;28;20270;-67
2022/07/24 05:17:40;;;;;;;1.63;1.63;;;18.30;99.90;;;;;;6315182;28;20270;-67
2022/07/24 05:20:45;;;;;;;1.85;1.45;;;18.40;99.90;;;;;;6314481;28;20270;-67
2022/07/24 05:23:50;;;;;;;1.55;1.33;;;18.40;99.90;;;;;;6314858;28;20291;-67
2022/07/24 05:26:56;;;;;;;1.33;1.33;;;18.50;99.90;;;;;;6314899;28;20271;-67
2022/07/24 05:30:03;;;;;;;1.73;1.60;;;18.60;99.90;;;;;;6314699;28;20271;-67
2022/07/24 05:33:11;;;;;;;1.27;1.27;;;18.60;99.90;;;;;;6314484;28;20279;-67
2022/07/24 05:36:17;;;;;;;1.60;1.60;;;18.50;99.90;;;;;;6314655;28;20271;-67
2022/07/24 05:39:22;;;;;;;1.55;1.55;;;18.40;99.90;;;;;;6329928;28;20302;-67
2022/07/24 05:42:27;;;;;;;1.40;1.30;;;18.40;99.90;;;;;;6339710;28;20290;-67
2022/07/24 05:45:34;;;;;;;1.77;1.67;;;18.50;99.90;;;;;;6339160;28;20274;-67
2022/07/24 05:48:39;;;;;;;2.03;1.50;;;18.60;99.90;;;;;;6339408;28;20452;-67
2022/07/24 05:51:45;;;;;;;1.40;1.40;;;18.70;99.90;;;;;;6339107;28;20455;-67
2022/07/24 05:54:50;;;;;;;1.40;1.40;;;18.90;99.90;;;;;;6339815;28;20270;-67
2022/07/24 05:57:56;;;;;;;1.42;1.42;;;19.10;99.90;;;;;;6339309;28;20274;-67
2022/07/24 06:01:02;;;;;;;1.50;1.50;;;19.30;99.90;;;;;;6338718;28;20269;-67
2022/07/24 06:04:08;;;;;;;2.20;2.10;;;19.50;99.90;;;;;;6338200;28;20294;-67
2022/07/24 06:07:13;;;;;;;1.58;1.58;;;19.60;99.90;;;;;;6335744;28;20269;-67
2022/07/24 06:10:18;;;;;;;1.67;1.50;;;19.80;99.90;;;;;;6338951;28;20277;-67
2022/07/24 06:13:26;;;;;;;1.50;1.50;;;19.90;99.90;;;;;;6338317;28;20561;-67
2022/07/24 06:16:32;;;;;;;1.45;1.45;;;20.10;99.90;;;;;;6338697;28;20266;-67
2022/07/24 06:19:38;;;;;;;1.52;1.45;;;20.10;99.90;;;;;;6338049;28;20269;-67
2022/07/24 06:22:44;;;;;;;1.30;1.15;;;20.20;99.90;;;;;;6338384;28;20290;-68
2022/07/24 06:25:53;;;;;;;2.50;1.33;;;20.30;99.90;;;;;;6337895;28;20265;-67
2022/07/24 06:28:58;;;;;;;1.52;1.42;;;20.40;99.90;;;;;;6338498;28;20274;-67
2022/07/24 06:32:06;;;;;;;1.30;1.20;;;20.30;99.90;;;;;;6338216;28;20269;-68
2022/07/24 06:35:12;;;;;;;1.40;1.40;;;20.20;99.90;;;;;;6338486;28;20322;-68
2022/07/24 06:38:17;;;;;;;1.40;1.40;;;20.10;99.90;;;;;;6338017;28;20294;-68
2022/07/24 06:41:23;;;;;;;1.60;1.60;;;20.10;99.90;;;;;;6338018;28;20270;-67
2022/07/24 06:44:28;;;;;;;1.55;1.45;;;20.10;99.90;;;;;;6337626;28;20485;-67
2022/07/24 06:47:35;;;;;;;1.40;1.40;;;20.30;99.90;;;;;;6338017;28;20269;-67
2022/07/24 06:50:40;;;;;;;1.50;1.50;;;20.40;99.90;;;;;;6338020;28;20274;-67
2022/07/24 06:53:46;;;;;;;1.15;1.15;;;20.50;99.90;;;;;;6337853;28;20273;-67
2022/07/24 06:56:52;;;;;;;1.30;1.30;;;20.60;99.90;;;;;;6337885;28;20266;-67
2022/07/24 06:59:57;;;;;;;1.25;1.25;;;20.60;99.90;;;;;;6337969;28;20265;-68
2022/07/24 07:03:05;;;;;;;1.20;1.20;;;20.70;99.90;;;;;;6337517;28;20289;-68
2022/07/24 07:06:11;;;;;;;1.30;1.30;;;20.80;99.90;;;;;;6337288;28;20266;-67
2022/07/24 07:09:16;;;;;;;1.30;1.30;;;20.90;99.90;;;;;;6337351;28;20269;-68
2022/07/24 07:12:22;;;;;;;1.23;1.23;;;21.00;99.90;;;;;;6336799;28;20266;-67
2022/07/24 07:15:27;;;;;;;1.42;1.33;;;21.00;99.60;;;;;;6337239;28;20545;-67
2022/07/24 07:18:35;;;;;;;1.20;1.20;;;20.90;98.30;;;;;;6336635;28;20269;-68
2022/07/24 07:21:44;;;;;;;1.13;1.13;;;20.90;98.60;;;;;;6337060;28;20286;-69
2022/07/24 07:24:50;;;;;;;1.45;1.20;;;21.00;98.20;;;;;;6337199;28;20294;-67
2022/07/24 07:27:55;;;;;;;1.00;1.00;;;21.00;97.30;;;;;;6336955;28;20277;-67
2022/07/24 07:31:00;;;;;;;1.13;1.13;;;21.00;98.00;;;;;;6336420;28;20274;-67
2022/07/24 07:34:07;;;;;;;1.30;1.20;;;21.10;97.70;;;;;;6336490;28;20438;-67
2022/07/24 07:37:13;;;;;;;1.00;1.00;;;21.20;97.00;;;;;;6335710;28;20581;-67
2022/07/24 07:40:19;;;;;;;1.15;1.10;;;21.20;96.80;;;;;;6336118;28;20298;-68
2022/07/24 07:43:24;;;;;;;1.65;1.25;;;21.30;96.80;;;;;;6336408;28;20285;-68
2022/07/24 07:46:30;;;;;;;1.10;1.10;;;21.40;97.00;;;;;;6336019;28;20577;-67
2022/07/24 07:49:37;;;;;;;1.00;1.00;;;21.40;96.70;;;;;;6336124;28;20269;-68
2022/07/24 07:52:43;;;;;;;1.08;1.08;;;21.40;95.70;;;;;;6336499;28;20269;-68
2022/07/24 07:55:51;;;;;;;1.10;1.10;;;21.40;96.30;;;;;;6335793;28;20273;-68
2022/07/24 07:58:56;;;;;;;1.10;1.10;;;21.40;95.90;;;;;;6336336;28;20274;-68
2022/07/24 08:02:06;;;;;;;1.00;1.00;;;21.40;95.20;;;;;;6336362;28;20289;-67
2022/07/24 08:05:12;;;;;;;1.30;1.20;;;21.40;94.70;;;;;;6335390;28;20500;-68
2022/07/24 08:08:18;;;;;;;1.45;1.00;;;21.50;94.30;;;;;;6336339;28;20265;-67
2022/07/24 08:11:25;;;;;;;1.25;1.25;;;21.60;95.20;;;;;;6336088;28;20265;-67
2022/07/24 08:14:32;;;;;;;1.00;1.00;;;21.70;95.00;;;;;;6336194;28;20273;-67
2022/07/24 08:17:37;;;;;;;1.10;1.10;;;21.80;94.20;;;;;;6335842;28;20270;-68
2022/07/24 08:20:44;;;;;;;0.95;0.95;;;21.80;94.00;;;;;;6317619;28;20269;-68
2022/07/24 08:23:50;;;;;;;1.17;1.17;;;21.70;94.00;;;;;;6335992;28;20302;-69
2022/07/24 08:26:55;;;;;;;1.48;1.00;;;21.70;94.30;;;;;;6335289;28;20273;-68
2022/07/24 08:30:01;;;;;;;1.20;1.05;;;21.80;94.30;;;;;;6335258;28;20461;-68
2022/07/24 08:33:07;;;;;;;2.33;1.65;;;21.70;93.60;;;;;;6335676;28;20269;-67
2022/07/24 08:36:14;;;;;;;0.98;0.98;;;21.80;94.40;;;;;;6335575;28;20274;-67
2022/07/24 08:39:19;;;;;;;1.10;1.10;;;21.90;93.20;;;;;;6335272;28;20298;-67
2022/07/24 08:42:24;;;;;;;1.08;1.08;;;22.00;93.50;;;;;;6336067;28;20269;-64
2022/07/24 08:45:30;;;;;;;1.92;1.10;;;22.10;92.70;;;;;;6335793;28;20293;-68
2022/07/24 08:48:36;;;;;;;1.20;1.20;;;22.00;93.10;;;;;;6336916;28;20270;-68
2022/07/24 08:51:45;;;;;;;1.02;1.02;;;22.00;92.80;;;;;;6342705;28;20354;-67
2022/07/24 08:54:50;;;;;;;0.90;0.90;;;22.10;92.80;;;;;;6341972;28;20273;-67
2022/07/24 08:57:57;;;;;;;1.25;1.23;;;22.10;92.70;;;;;;6342029;28;20278;-66
2022/07/24 09:01:02;;;;;;;3.33;1.35;;;22.00;93.50;;;;;;6340812;28;20273;-67
2022/07/24 09:04:36;;;;;;;1.38;1.30;;;22.20;95.10;;;;;;6339991;28;20459;-66
2022/07/24 09:07:44;;;;;;;2.28;1.30;;;22.30;95.30;;;;;;6340334;28;20265;-68
2022/07/24 09:10:59;;;;;;;1.48;1.05;;;22.30;94.80;;;;;;6339887;28;20289;-68
2022/07/24 09:17:28;;;;;;;1.20;1.20;;;22.10;95.00;;;;;;6339478;28;20442;-68
2022/07/24 09:20:39;;;;;;;1.90;1.20;;;22.00;94.20;;;;;;6339782;28;20985;-68
2022/07/24 09:23:48;;;;;;;1.15;1.15;;;22.00;93.50;;;;;;6339467;28;20290;-68
2022/07/24 09:26:56;;;;;;;1.00;0.98;;;21.90;92.60;;;;;;6339029;28;20473;-68
2022/07/24 09:30:02;;;;;;;0.95;0.95;;;22.00;92.20;;;;;;6339615;28;20274;-69
2022/07/24 09:33:18;;;;;;;1.17;1.17;;;22.20;93.00;;;;;;6339074;28;20459;-69
2022/07/24 09:36:26;;;;;;;3.20;1.25;;;22.20;92.60;;;;;;6339205;28;20269;-69
2022/07/24 09:39:36;;;;;;;1.30;1.30;;;22.30;92.30;;;;;;6339536;28;20297;-69
2022/07/24 09:42:43;;;;;;;1.20;1.20;;;22.30;92.40;;;;;;6339812;28;20348;-68
2022/07/24 09:46:06;;;;;;;1.30;1.20;;;22.20;93.60;;;;;;6339511;28;20488;-69
2022/07/24 09:49:20;;;;;;;1.33;1.30;;;22.30;93.50;;;;;;6339370;28;20609;-69
2022/07/24 09:52:34;;;;;;;1.20;1.20;;;22.40;93.60;;;;;;6339002;28;20289;-67
2022/07/24 09:55:41;;;;;;;1.80;1.70;;;22.50;93.70;;;;;;6339044;28;20273;-68
2022/07/24 09:58:51;;;;;;;1.30;1.25;;;22.50;93.50;;;;;;6339004;28;20269;-68
2022/07/24 10:01:58;;;;;;;1.50;1.40;;;22.50;92.40;;;;;;6338870;28;20270;-67
2022/07/24 10:05:09;;;;;;;1.50;1.50;;;22.50;92.90;;;;;;6338978;28;20576;-67
2022/07/24 10:08:15;;;;;;;1.30;1.30;;;22.50;93.00;;;;;;6339020;28;20270;-68
2022/07/24 10:11:22;;;;;;;1.88;1.35;;;22.60;93.40;;;;;;6339144;28;20275;-68
2022/07/24 10:14:28;;;;;;;1.27;1.27;;;22.70;93.70;;;;;;6339200;28;20269;-68
2022/07/24 10:18:11;;;;;;;1.20;1.10;;;22.60;92.10;;;;;;6338715;28;20274;-68
2022/07/24 10:21:19;;;;;;;1.30;1.30;;;22.60;92.70;;;;;;6338886;28;20274;-67
2022/07/24 10:25:06;;;;;;;3.58;1.25;;;22.70;92.00;;;;;;6337996;28;20270;-68
2022/07/24 10:28:16;;;;;;;1.77;1.50;;;22.70;90.50;;;;;;6338429;28;20270;-67
2022/07/24 10:31:21;;;;;;;1.20;1.20;;;22.70;91.00;;;;;;6338390;28;20269;-68
2022/07/24 10:34:32;;;;;;;1.30;1.20;;;22.80;90.90;;;;;;6338515;28;20549;-68
2022/07/24 10:37:57;;;;;;;1.38;1.10;;;22.80;91.40;;;;;;6338096;28;20274;-67
2022/07/24 10:41:09;;;;;;;1.85;1.10;;;23.00;91.90;;;;;;6338112;28;20275;-67
2022/07/24 10:44:19;;;;;;;1.17;1.17;;;23.10;91.00;;;;;;6337748;28;20274;-68
2022/07/24 10:47:27;;;;;;;1.10;1.10;;;23.20;90.50;;;;;;6337802;28;20286;-67
2022/07/24 10:51:11;;;;;;;1.70;1.25;;;23.20;90.20;;;;;;6337822;28;20265;-68
2022/07/24 10:54:19;;;;;;;1.25;0.90;;;23.30;90.10;;;;;;6323695;28;20591;-67
2022/07/24 10:57:48;;;;;;;1.90;1.10;;;23.40;89.20;;;;;;6338019;28;20273;-67
2022/07/24 11:00:55;;;;;;;1.00;1.00;;;23.60;89.60;;;;;;6337309;28;20269;-67
2022/07/24 11:04:01;;;;;;;1.13;1.13;;;23.70;90.30;;;;;;6337093;28;20274;-68
2022/07/24 11:07:12;;;;;;;1.20;1.17;;;23.70;90.00;;;;;;6300288;28;20286;-68
2022/07/24 11:10:17;;;;;;;1.75;1.10;;;23.80;89.40;;;;;;6312344;28;20270;-68
2022/07/24 11:13:51;;;;;;;1.20;1.10;;;23.70;88.40;;;;;;6311259;28;20457;-68
2022/07/24 11:16:58;;;;;;;1.10;1.10;;;23.80;89.50;;;;;;6312454;28;20274;-68
2022/07/24 11:20:06;;;;;;;2.20;1.50;;;23.70;85.30;;;;;;6311859;28;20274;-68
2022/07/24 11:23:22;;;;;;;1.23;1.10;;;23.70;85.50;;;;;;6311664;28;20271;-68
2022/07/24 11:26:41;;;;;;;1.23;1.20;;;24.00;86.90;;;;;;6311667;28;20290;-68
2022/07/24 11:29:48;;;;;;;1.20;1.20;;;24.10;88.20;;;;;;6311640;28;20417;-68
2022/07/24 11:32:55;;;;;;;1.30;1.30;;;24.10;86.20;;;;;;6311765;28;20271;-68
2022/07/24 11:36:00;;;;;;;1.85;1.20;;;24.20;86.40;;;;;;6311384;28;20467;-68
2022/07/24 11:39:06;;;;;;;1.10;1.10;;;24.20;84.70;;;;;;6311389;28;20303;-68
2022/07/24 11:42:13;;;;;;;1.40;1.30;;;24.20;84.20;;;;;;6311563;28;20468;-68
2022/07/24 11:45:18;;;;;;;2.25;1.83;;;24.30;83.80;;;;;;6311550;28;20266;-68
2022/07/24 11:48:25;;;;;;;1.30;1.30;;;24.30;83.90;;;;;;6310997;28;20317;-68
2022/07/24 11:51:41;;;;;;;3.83;1.15;;;24.30;85.00;;;;;;6311260;28;20274;-68
2022/07/24 11:54:48;;;;;;;1.17;1.17;;;24.30;82.80;;;;;;6310709;28;20270;-68
2022/07/24 11:57:57;;;;;;;1.00;1.00;;;24.50;83.70;;;;;;6311157;28;20290;-68
2022/07/24 12:01:24;;;;;;;2.60;1.67;;;24.50;83.30;;;;;;6311048;28;20270;-68
2022/07/24 12:04:31;;;;;;;1.25;1.25;;;24.60;82.70;;;;;;6314356;28;20262;-68
2022/07/24 12:07:36;;;;;;;1.85;1.10;;;24.70;83.20;;;;;;6336154;28;20289;-68
2022/07/24 12:10:42;;;;;;;1.00;1.00;;;24.90;83.30;;;;;;6335266;28;20269;-68
2022/07/24 12:13:47;;;;;;;1.02;1.00;;;24.90;80.60;;;;;;6335892;28;20269;-68
2022/07/24 12:16:54;;;;;;;1.02;1.02;;;25.10;81.40;;;;;;6335741;28;20269;-68
2022/07/24 12:20:06;;;;;;;1.00;1.00;;;25.10;80.30;;;;;;6335646;28;20266;-68
2022/07/24 12:23:15;;;;;;;0.90;0.90;;;25.20;79.00;;;;;;6335308;28;20286;-68
2022/07/24 12:26:23;;;;;;;1.00;1.00;;;25.20;80.70;;;;;;6335740;28;20274;-68
2022/07/24 12:29:29;;;;;;;1.42;1.00;;;25.10;78.00;;;;;;6335890;28;20462;-68
2022/07/24 12:32:34;;;;;;;1.38;1.30;;;25.10;80.50;;;;;;6335832;28;20269;-69
2022/07/24 12:35:56;;;;;;;1.13;1.13;;;25.00;78.30;;;;;;6335319;28;20273;-68
2022/07/24 12:39:03;;;;;;;0.90;0.90;;;25.10;77.80;;;;;;6336030;28;20585;-68
2022/07/24 12:42:08;;;;;;;1.65;1.40;;;25.20;77.50;;;;;;6335470;28;20269;-68
2022/07/24 12:45:16;;;;;;;1.08;1.08;;;25.20;77.40;;;;;;6335775;28;20274;-68
2022/07/24 12:48:23;;;;;;;1.17;1.17;;;25.20;78.10;;;;;;6334926;28;20290;-68
2022/07/24 12:51:48;;;;;;;1.13;1.13;;;25.20;75.70;;;;;;6335580;28;20552;-68
2022/07/24 12:54:54;;;;;;;1.52;1.52;;;25.30;77.00;;;;;;6335732;28;20274;-68
2022/07/24 12:58:00;;;;;;;1.13;1.13;;;25.20;74.80;;;;;;6335131;28;20365;-68
2022/07/24 13:01:06;;;;;;;1.00;1.00;;;25.30;75.80;;;;;;6335575;28;20266;-68
2022/07/24 13:04:13;;;;;;;3.30;1.15;;;25.30;76.10;;;;;;6334329;28;20269;-68
2022/07/24 13:07:24;;;;;;;1.05;1.05;;;25.10;75.10;;;;;;6333273;28;20266;-68
2022/07/24 13:10:29;;;;;;;1.52;1.27;;;25.30;74.70;;;;;;6335669;28;20269;-68
2022/07/24 13:13:35;;;;;;;4.85;1.30;;;25.20;74.80;;;;;;6335234;28;20274;-68
2022/07/24 13:16:42;;;;;;;2.30;1.05;;;25.30;75.70;;;;;;6335343;28;20271;-68
2022/07/24 13:19:50;;;;;;;1.10;1.10;;;25.20;74.50;;;;;;6335400;28;20278;-69
2022/07/24 13:22:56;;;;;;;4.03;1.10;;;25.40;77.00;;;;;;6334602;28;20277;-68
2022/07/24 13:26:02;;;;;;;1.15;1.15;;;25.60;73.30;;;;;;6335309;28;20269;-69
2022/07/24 13:29:07;;;;;;;1.30;1.20;;;25.70;73.80;;;;;;6334884;28;20289;-69
2022/07/24 13:32:12;;;;;;;1.25;1.25;;;25.60;73.30;;;;;;6335292;28;20269;-69
2022/07/24 13:35:23;;;;;;;1.33;1.23;;;25.80;74.80;;;;;;6336227;28;20278;-68
2022/07/24 13:38:31;;;;;;;1.30;1.17;;;25.80;73.70;;;;;;6339885;28;20298;-68
2022/07/24 13:41:38;;;;;;;1.55;1.33;;;25.80;72.50;;;;;;6339579;28;20565;-69
2022/07/24 13:44:43;;;;;;;1.30;1.30;;;26.10;70.30;;;;;;6339726;28;20558;-69
2022/07/24 13:47:49;;;;;;;1.10;1.10;;;27.40;68.10;;;;;;6338844;28;20448;-69
2022/07/24 13:50:54;;;;;;;2.92;1.10;;;28.20;67.80;;;;;;6339438;28;20286;-69
2022/07/24 13:54:01;;;;;;;1.08;1.08;;;27.90;64.90;;;;;;6338879;28;20273;-68
2022/07/24 13:57:06;;;;;;;1.20;1.20;;;27.20;65.00;;;;;;6338696;28;20270;-69
2022/07/24 14:00:14;;;;;;;0.98;0.98;;;26.90;64.70;;;;;;6339032;28;20278;-69
2022/07/24 14:03:20;;;;;;;1.13;1.13;;;26.80;69.40;;;;;;6321119;28;20270;-69
2022/07/24 14:06:42;;;;;;;1.30;1.30;;;26.60;68.10;;;;;;6326400;28;20278;-69
2022/07/24 14:09:49;;;;;;;1.00;1.00;;;26.50;65.90;;;;;;6338209;28;20294;-68
2022/07/24 14:12:54;;;;;;;1.45;1.15;;;26.30;69.10;;;;;;6338608;28;20270;-69
2022/07/24 14:16:00;;;;;;;3.30;1.30;;;26.20;70.00;;;;;;6338655;28;20353;-69
2022/07/24 14:19:06;;;;;;;1.30;1.30;;;25.90;68.90;;;;;;6338514;28;20277;-69
2022/07/24 14:22:12;;;;;;;1.13;1.13;;;25.80;70.50;;;;;;6338180;28;20270;-69
2022/07/24 14:25:19;;;;;;;1.13;1.13;;;26.00;69.90;;;;;;6338204;28;20274;-69
2022/07/24 14:28:24;;;;;;;1.25;1.25;;;26.00;66.20;;;;;;6338313;28;20285;-68
2022/07/24 14:31:29;;;;;;;1.20;1.20;;;26.00;69.80;;;;;;6337853;28;20289;-68
2022/07/24 14:34:34;;;;;;;0.93;0.93;;;26.10;69.50;;;;;;6338064;28;20286;-68
2022/07/24 14:37:40;;;;;;;1.20;1.00;;;26.10;67.80;;;;;;6337046;28;21165;-67
2022/07/24 14:40:47;;;;;;;1.10;1.10;;;26.30;65.90;;;;;;6338224;28;20277;-68
2022/07/24 14:43:52;;;;;;;1.10;1.10;;;26.20;64.00;;;;;;6336764;28;20287;-68
2022/07/24 14:46:58;;;;;;;1.08;0.90;;;26.20;65.70;;;;;;6292829;28;20453;-67
2022/07/24 14:50:05;;;;;;;1.20;1.20;;;26.00;65.20;;;;;;6281232;28;20382;-67
2022/07/24 14:53:15;;;;;;;3.72;1.30;;;26.00;66.90;;;;;;6287754;28;20558;-67
2022/07/24 14:56:21;;;;;;;3.72;1.13;;;26.30;70.40;;;;;;6286827;28;20542;-67
2022/07/24 14:59:31;;;;;;;1.60;1.45;;;26.20;69.60;;;;;;6285914;28;20571;-68
2022/07/24 15:02:36;;;;;;;2.45;1.17;;;26.70;66.60;;;;;;6286438;28;20294;-67
2022/07/24 15:05:42;;;;;;;1.10;1.10;;;27.00;66.00;;;;;;6286828;28;20263;-68
2022/07/24 15:08:47;;;;;;;1.35;1.30;;;26.80;68.80;;;;;;6286728;28;20687;-68
2022/07/24 15:11:56;;;;;;;2.40;1.20;;;26.70;67.00;;;;;;6287090;28;20299;-68
2022/07/24 15:15:01;;;;;;;1.75;1.65;;;26.40;66.40;;;;;;6262065;28;20292;-67
2022/07/24 15:18:08;;;;;;;1.60;1.30;;;26.20;67.10;;;;;;6261552;28;20295;-68
2022/07/24 15:21:13;;;;;;;2.95;2.75;;;26.30;67.10;;;;;;6262463;28;20286;-68
2022/07/24 15:24:18;;;;;;;2.70;2.70;;;26.10;66.80;;;;;;6262046;28;20295;-68
2022/07/24 15:27:31;;;;;;;2.42;2.42;;;26.00;66.70;;;;;;6261734;28;20303;-68
2022/07/24 15:30:37;;;;;;;2.45;1.30;;;25.80;67.60;;;;;;6275004;28;20288;-68
2022/07/24 15:33:45;;;;;;;2.00;1.55;;;25.70;68.70;;;;;;6286349;28;20303;-68
2022/07/24 15:36:51;;;;;;;2.60;1.50;;;25.70;68.20;;;;;;6286623;28;20290;-68
2022/07/24 15:39:56;;;;;;;1.35;1.30;;;25.70;71.60;;;;;;6307426;28;20303;-68
2022/07/24 15:43:03;;;;;;;1.52;1.38;;;25.60;70.70;;;;;;6311024;28;20299;-69
2022/07/24 15:46:12;;;;;;;1.70;1.52;;;25.60;72.70;;;;;;6311780;28;20200;-68
2022/07/24 15:49:18;;;;;;;2.15;1.30;;;25.70;73.60;;;;;;6310610;28;20298;-68
2022/07/24 15:52:23;;;;;;;2.70;2.55;;;25.60;72.50;;;;;;6310592;28;20481;-69
2022/07/24 15:55:29;;;;;;;2.20;2.00;;;25.50;72.90;;;;;;6311056;28;20283;-69
2022/07/24 15:58:35;;;;;;;3.50;1.70;;;25.30;74.20;;;;;;6310126;28;20290;-69
2022/07/24 16:01:40;;;;;;;2.53;1.30;;;25.20;74.20;;;;;;6310075;28;20304;-69
2022/07/24 16:04:50;;;;;;;1.42;1.42;;;25.20;76.20;;;;;;6310717;28;20263;-69
2022/07/24 16:07:56;;;;;;;3.75;1.60;;;25.20;76.00;;;;;;6310484;28;20295;-69
2022/07/24 16:11:01;;;;;;;3.70;1.20;;;25.10;76.30;;;;;;6310870;28;20290;-69
2022/07/24 16:14:12;;;;;;;1.55;1.45;;;25.10;73.90;;;;;;6310411;28;20295;-69
2022/07/24 16:17:18;;;;;;;1.70;1.40;;;25.10;74.40;;;;;;6310641;28;20299;-69
2022/07/24 16:20:24;;;;;;;1.55;1.20;;;25.00;75.90;;;;;;6310696;28;20274;-67